createdAt,value
2018-09-20T00:03:46.539Z,98256.00
2018-09-20T00:07:48.730Z,98244.00
2018-09-20T00:11:50.915Z,98247.00
2018-09-20T00:15:53.109Z,98248.00
2018-09-20T00:19:55.299Z,98255.00
2018-09-20T00:23:57.459Z,98244.00
2018-09-20T00:27:59.650Z,98235.00
2018-09-20T00:32:01.859Z,98232.00
2018-09-20T00:36:04.038Z,98233.00
2018-09-20T00:40:07.046Z,98231.00
2018-09-20T00:44:10.050Z,98224.00
2018-09-20T00:48:12.233Z,98237.00
2018-09-20T00:52:14.415Z,98234.00
2018-09-20T00:56:16.601Z,98234.00
2018-09-20T01:00:18.812Z,98228.00
2018-09-20T01:04:20.989Z,98226.00
2018-09-20T01:08:26.575Z,98232.00
2018-09-20T01:12:29.040Z,98234.00
2018-09-20T01:16:31.247Z,98230.00
2018-09-20T01:20:33.463Z,98225.00
2018-09-20T01:24:35.763Z,98228.00
2018-09-20T01:28:38.047Z,98224.00
2018-09-20T01:32:40.286Z,98234.00
2018-09-20T01:36:42.484Z,98228.00
2018-09-20T01:40:44.818Z,98232.00
2018-09-20T01:44:47.017Z,98228.00
2018-09-20T01:48:49.191Z,98230.00
2018-09-20T01:52:51.399Z,98228.00
2018-09-20T01:56:53.539Z,98221.00
2018-09-20T02:00:55.731Z,98227.00
2018-09-20T02:04:57.918Z,98216.00
2018-09-20T02:09:00.124Z,98218.00
2018-09-20T02:13:02.415Z,98218.00
2018-09-20T02:17:04.626Z,98212.00
2018-09-20T02:21:07.860Z,98222.00
2018-09-20T02:25:10.082Z,98221.00
2018-09-20T02:29:12.252Z,98231.00
2018-09-20T02:33:14.387Z,98227.00
2018-09-20T02:37:16.559Z,98230.00
2018-09-20T02:41:18.694Z,98235.00
2018-09-20T02:45:20.863Z,98235.00
2018-09-20T02:49:23.003Z,98240.00
2018-09-20T02:53:25.213Z,98228.00
2018-09-20T02:57:27.372Z,98230.00
2018-09-20T03:01:29.537Z,98230.00
2018-09-20T03:05:31.713Z,98231.00
2018-09-20T03:09:33.899Z,98223.00
2018-09-20T03:13:36.051Z,98224.00
2018-09-20T03:17:41.160Z,98227.00
2018-09-20T03:21:43.358Z,98235.00
2018-09-20T03:25:46.159Z,98228.00
2018-09-20T03:29:48.495Z,98231.00
2018-09-20T03:33:50.692Z,98233.00
2018-09-20T03:37:52.864Z,98230.00
2018-09-20T03:41:55.039Z,98227.00
2018-09-20T03:45:57.234Z,98233.00
2018-09-20T03:49:59.938Z,98221.00
2018-09-20T03:55:31.664Z,98225.00
2018-09-20T03:59:33.863Z,98235.00
2018-09-20T04:03:36.075Z,98232.00
2018-09-20T04:07:38.219Z,98231.00
2018-09-20T04:11:40.466Z,98232.00
2018-09-20T04:15:42.602Z,98226.00
2018-09-20T04:19:44.775Z,98232.00
2018-09-20T04:23:46.973Z,98232.00
2018-09-20T04:27:49.175Z,98230.00
2018-09-20T04:31:51.694Z,98228.00
2018-09-20T04:35:53.690Z,98225.00
2018-09-20T04:39:55.900Z,98229.00
2018-09-20T04:43:58.167Z,98229.00
2018-09-20T04:48:00.343Z,98228.00
2018-09-20T04:52:02.509Z,98230.00
2018-09-20T04:56:05.023Z,98237.00
2018-09-20T05:00:07.319Z,98227.00
2018-09-20T05:04:09.607Z,98224.00
2018-09-20T05:08:11.796Z,98227.00
2018-09-20T05:12:14.014Z,98221.00
2018-09-20T05:16:16.292Z,98231.00
2018-09-20T05:20:18.534Z,98228.00
2018-09-20T05:24:20.855Z,98225.00
2018-09-20T05:28:23.068Z,98238.00
2018-09-20T05:32:25.275Z,98222.00
2018-09-20T05:36:27.441Z,98226.00
2018-09-20T05:40:29.667Z,98239.00
2018-09-20T05:44:32.452Z,98242.00
2018-09-20T05:48:34.704Z,98237.00
2018-09-20T05:52:37.142Z,98237.00
2018-09-20T05:56:39.493Z,98240.00
2018-09-20T06:00:41.723Z,98246.00
2018-09-20T06:04:44.491Z,98239.00
2018-09-20T06:08:46.884Z,98245.00
2018-09-20T06:12:49.446Z,98249.00
2018-09-20T06:16:51.685Z,98253.00
2018-09-20T06:20:54.058Z,98254.00
2018-09-20T06:24:56.328Z,98243.00
2018-09-20T06:28:58.642Z,98250.00
2018-09-20T06:33:00.812Z,98250.00
2018-09-20T06:37:03.097Z,98256.00
2018-09-20T06:41:06.054Z,98255.00
2018-09-20T06:45:08.172Z,98251.00
2018-09-20T06:49:10.664Z,98252.00
2018-09-20T06:53:12.852Z,98257.00
2018-09-20T06:57:15.004Z,98258.00
2018-09-20T07:01:17.215Z,98254.00
2018-09-20T07:05:19.404Z,98257.00
2018-09-20T07:09:21.636Z,98268.00
2018-09-20T07:13:23.822Z,98260.00
2018-09-20T07:17:26.038Z,98255.00
2018-09-20T07:21:28.223Z,98257.00
2018-09-20T07:26:59.935Z,98249.00
2018-09-20T07:31:02.282Z,98246.00
2018-09-20T07:35:04.690Z,98250.00
2018-09-20T07:39:07.748Z,98239.00
2018-09-20T07:43:10.272Z,98248.00
2018-09-20T07:47:12.450Z,98250.00
2018-09-20T07:51:14.675Z,98252.00
2018-09-20T07:55:16.855Z,98259.00
2018-09-20T07:59:19.044Z,98251.00
2018-09-20T08:03:21.577Z,98253.00
2018-09-20T08:07:23.796Z,98253.00
2018-09-20T08:11:25.997Z,98255.00
2018-09-20T08:15:28.217Z,98261.00
2018-09-20T08:19:30.370Z,98268.00
2018-09-20T08:23:32.574Z,98258.00
2018-09-20T08:27:34.813Z,98257.00
2018-09-20T08:31:36.968Z,98263.00
2018-09-20T08:35:39.144Z,98270.00
2018-09-20T08:39:41.283Z,98269.00
2018-09-20T08:43:43.521Z,98273.00
2018-09-20T08:47:45.673Z,98262.00
2018-09-20T08:51:47.852Z,98278.00
2018-09-20T08:55:50.057Z,98265.00
2018-09-20T08:59:52.251Z,98260.00
2018-09-20T09:03:54.415Z,98263.00
2018-09-20T09:07:56.595Z,98259.00
2018-09-20T09:11:58.860Z,98260.00
2018-09-20T09:16:00.954Z,98256.00
2018-09-20T09:20:03.240Z,98253.00
2018-09-20T09:24:05.548Z,98261.00
2018-09-20T09:28:08.751Z,98262.00
2018-09-20T09:32:10.926Z,98253.00
2018-09-20T09:36:13.106Z,98259.00
2018-09-20T09:40:15.369Z,98255.00
2018-09-20T09:44:17.510Z,98251.00
2018-09-20T09:48:19.766Z,98240.00
2018-09-20T09:52:22.260Z,98239.00
2018-09-20T09:56:24.452Z,98234.00
2018-09-20T10:00:31.500Z,98236.00
2018-09-20T10:04:33.664Z,98225.00
2018-09-20T10:08:35.872Z,98227.00
2018-09-20T10:12:38.060Z,98229.00
2018-09-20T10:16:40.266Z,98222.00
2018-09-20T10:20:42.500Z,98216.00
2018-09-20T10:24:44.661Z,98216.00
2018-09-20T10:28:46.883Z,98221.00
2018-09-20T10:32:49.065Z,98204.00
2018-09-20T10:36:51.204Z,98198.00
2018-09-20T10:40:53.451Z,98211.00
2018-09-20T10:44:56.792Z,98210.00
2018-09-20T10:48:58.995Z,98209.00
2018-09-20T10:53:01.183Z,98203.00
2018-09-20T10:57:03.369Z,98196.00
2018-09-20T11:01:05.576Z,98199.00
2018-09-20T11:05:07.910Z,98190.00
2018-09-20T11:09:10.199Z,98184.00
2018-09-20T11:13:12.389Z,98174.00
2018-09-20T11:17:14.643Z,98165.00
2018-09-20T11:21:16.864Z,98162.00
2018-09-20T11:25:19.063Z,98167.00
2018-09-20T11:29:21.275Z,98156.00
2018-09-20T11:33:23.462Z,98159.00
2018-09-20T11:37:25.688Z,98157.00
2018-09-20T11:41:27.991Z,98157.00
2018-09-20T11:45:30.245Z,98156.00
2018-09-20T11:49:32.464Z,98119.00
2018-09-20T11:53:34.656Z,98157.00
2018-09-20T11:57:36.820Z,98154.00
2018-09-20T12:01:39.028Z,98148.00
2018-09-20T12:05:41.264Z,98140.00
2018-09-20T12:09:43.531Z,98142.00
2018-09-20T12:13:45.974Z,98126.00
2018-09-20T12:17:48.159Z,98123.00
2018-09-20T12:21:50.380Z,98117.00
2018-09-20T12:25:52.595Z,98119.00
2018-09-20T12:29:55.031Z,98124.00
2018-09-20T12:33:57.260Z,98117.00
2018-09-20T12:37:59.557Z,98101.00
2018-09-20T12:42:01.747Z,98093.00
2018-09-20T12:46:03.979Z,98088.00
2018-09-20T12:50:06.342Z,98072.00
2018-09-20T12:54:08.551Z,98082.00
2018-09-20T12:58:10.699Z,98084.00
2018-09-20T13:02:13.024Z,98086.00
2018-09-20T13:06:16.248Z,98090.00
2018-09-20T13:10:18.428Z,98083.00
2018-09-20T13:14:20.652Z,98082.00
2018-09-20T13:18:22.922Z,98075.00
2018-09-20T13:22:25.221Z,98069.00
2018-09-20T13:26:27.426Z,98071.00
2018-09-20T13:30:29.666Z,98061.00
2018-09-20T13:34:31.883Z,98065.00
2018-09-20T13:38:35.312Z,98062.00
2018-09-20T13:42:37.691Z,98057.00
2018-09-20T13:46:39.975Z,98060.00
2018-09-20T13:50:42.263Z,98056.00
2018-09-20T13:54:44.430Z,98046.00
2018-09-20T13:58:46.695Z,98040.00
2018-09-20T14:02:48.902Z,98041.00
2018-09-20T14:06:51.083Z,98034.00
2018-09-20T14:10:53.336Z,98028.00
2018-09-20T14:14:55.528Z,98033.00
2018-09-20T14:18:57.707Z,98023.00
2018-09-20T14:22:59.896Z,98009.00
2018-09-20T14:27:02.107Z,98013.00
2018-09-20T14:31:04.360Z,98012.00
2018-09-20T14:35:06.639Z,98003.00
2018-09-20T14:39:10.107Z,97997.00
2018-09-20T14:43:12.363Z,97989.00
2018-09-20T14:47:14.556Z,97987.00
2018-09-20T14:51:16.821Z,97986.00
2018-09-20T14:55:19.037Z,97978.00
2018-09-20T14:59:21.218Z,97972.00
2018-09-20T15:03:23.436Z,97967.00
2018-09-20T15:07:25.633Z,97966.00
2018-09-20T15:11:27.859Z,97968.00
2018-09-20T15:15:30.066Z,97971.00
2018-09-20T15:19:32.255Z,97961.00
2018-09-20T15:23:34.412Z,97962.00
2018-09-20T15:27:36.688Z,97960.00
2018-09-20T15:31:39.012Z,97960.00
2018-09-20T15:35:41.231Z,97952.00
2018-09-20T15:39:44.270Z,97947.00
2018-09-20T15:43:46.659Z,97948.00
2018-09-20T15:47:48.895Z,97947.00
2018-09-20T15:51:51.328Z,97938.00
2018-09-20T15:55:53.524Z,97940.00
2018-09-20T15:59:55.682Z,97943.00
2018-09-20T16:03:57.855Z,97933.00
2018-09-20T16:08:00.058Z,97933.00
2018-09-20T16:12:02.323Z,97935.00
2018-09-20T16:16:04.605Z,97924.00
2018-09-20T16:20:07.335Z,97927.00
2018-09-20T16:24:10.605Z,97921.00
2018-09-20T16:28:19.840Z,97917.00
2018-09-20T16:32:35.329Z,97906.00
2018-09-20T16:36:56.266Z,97909.00
2018-09-20T16:40:59.827Z,97901.00
2018-09-20T16:45:01.999Z,97890.00
2018-09-20T16:49:04.383Z,97890.00
2018-09-20T16:53:06.626Z,97881.00
2018-09-20T16:57:08.824Z,97878.00
2018-09-20T17:01:11.153Z,97884.00
2018-09-20T17:05:13.398Z,97875.00
2018-09-20T17:09:15.728Z,97890.00
2018-09-20T17:13:18.523Z,97881.00
2018-09-20T17:17:20.782Z,97875.00
2018-09-20T17:21:22.984Z,97868.00
2018-09-20T17:25:25.883Z,97871.00
2018-09-20T17:29:28.400Z,97871.00
2018-09-20T17:33:30.615Z,97871.00
2018-09-20T17:37:33.494Z,97872.00
2018-09-20T17:41:36.525Z,97868.00
2018-09-20T17:45:38.755Z,97870.00
2018-09-20T17:49:40.973Z,97867.00
2018-09-20T17:53:44.039Z,97868.00
2018-09-20T17:57:46.673Z,97870.00
2018-09-20T18:01:48.899Z,97876.00
2018-09-20T18:05:52.078Z,97872.00
2018-09-20T18:09:54.289Z,97874.00
2018-09-20T18:13:56.559Z,97862.00
2018-09-20T18:17:58.818Z,97862.00
2018-09-20T18:22:01.081Z,97860.00
2018-09-20T18:26:03.316Z,97860.00
2018-09-20T18:30:05.929Z,97861.00
2018-09-20T18:34:08.188Z,97855.00
2018-09-20T18:38:10.487Z,97857.00
2018-09-20T18:42:12.662Z,97849.00
2018-09-20T18:46:14.895Z,97846.00
2018-09-20T18:50:17.276Z,97846.00
2018-09-20T18:54:19.462Z,97847.00
2018-09-20T18:58:21.752Z,97846.00
2018-09-20T19:02:24.267Z,97845.00
2018-09-20T19:06:26.724Z,97847.00
2018-09-20T19:10:32.242Z,97834.00
2018-09-20T19:14:34.480Z,97828.00
2018-09-20T19:18:36.718Z,97828.00
2018-09-20T19:22:38.938Z,97818.00
2018-09-20T19:26:41.208Z,97815.00
2018-09-20T19:30:43.513Z,97810.00
2018-09-20T19:34:45.786Z,97807.00
2018-09-20T19:38:48.172Z,97807.00
2018-09-20T19:42:50.388Z,97804.00
2018-09-20T19:46:52.624Z,97799.00
2018-09-20T19:50:56.843Z,97797.00
2018-09-20T19:54:59.064Z,97787.00
2018-09-20T19:59:01.305Z,97793.00
2018-09-20T20:03:03.493Z,97795.00
2018-09-20T20:07:05.688Z,97780.00
2018-09-20T20:11:07.907Z,97777.00
2018-09-20T20:15:10.092Z,97781.00
2018-09-20T20:19:13.168Z,97778.00
2018-09-20T20:23:15.415Z,97770.00
2018-09-20T20:27:17.558Z,97774.00
2018-09-20T20:31:19.745Z,97762.00
2018-09-20T20:35:21.963Z,97755.00
2018-09-20T20:39:24.309Z,97753.00
2018-09-20T20:43:26.457Z,97753.00
2018-09-20T20:47:28.628Z,97749.00
2018-09-20T20:51:30.803Z,97750.00
2018-09-20T20:55:33.029Z,97737.00
2018-09-20T20:59:36.559Z,97739.00
2018-09-20T21:03:38.932Z,97742.00
2018-09-20T21:07:42.442Z,97740.00
2018-09-20T21:11:44.675Z,97736.00
2018-09-20T21:15:46.871Z,97726.00
2018-09-20T21:19:49.108Z,97723.00
2018-09-20T21:23:52.207Z,97727.00
2018-09-20T21:27:54.385Z,97730.00
2018-09-20T21:31:57.565Z,97721.00
2018-09-20T21:35:59.735Z,97723.00
2018-09-20T21:40:02.183Z,97713.00
2018-09-20T21:44:04.394Z,97712.00
2018-09-20T21:48:06.710Z,97706.00
2018-09-20T21:52:08.967Z,97704.00
2018-09-20T21:56:11.995Z,97691.00
2018-09-20T22:00:14.292Z,97689.00
2018-09-20T22:04:16.481Z,97689.00
2018-09-20T22:08:18.680Z,97686.00
2018-09-20T22:12:21.043Z,97679.00
2018-09-20T22:16:23.260Z,97676.00
2018-09-20T22:20:26.844Z,97670.00
2018-09-20T22:24:29.109Z,97664.00
2018-09-20T22:28:31.269Z,97663.00
2018-09-20T22:32:33.622Z,97657.00
2018-09-20T22:36:35.815Z,97645.00
2018-09-20T22:40:38.055Z,97645.00
2018-09-20T22:44:40.247Z,97634.00
2018-09-20T22:48:42.420Z,97627.00
2018-09-20T22:52:45.099Z,97623.00
2018-09-20T22:56:47.271Z,97620.00
2018-09-20T23:00:49.511Z,97622.00
2018-09-20T23:04:51.700Z,97617.00
2018-09-20T23:08:53.897Z,97614.00
2018-09-20T23:12:56.047Z,97610.00
2018-09-20T23:16:58.458Z,97609.00
2018-09-20T23:21:00.677Z,97616.00
2018-09-20T23:25:02.895Z,97616.00
2018-09-20T23:29:05.071Z,97604.00
2018-09-20T23:33:07.212Z,97602.00
2018-09-20T23:37:09.406Z,97593.00
2018-09-20T23:41:11.595Z,97588.00
2018-09-20T23:45:13.946Z,97583.00
2018-09-20T23:49:16.100Z,97583.00
2018-09-20T23:53:18.316Z,97571.00
2018-09-20T23:57:26.144Z,97562.00
